createdAt,value
2023-04-22T00:01:53.118Z,4.23
2023-04-22T00:04:21.435Z,3.23
2023-04-22T00:06:49.121Z,4.33
2023-04-22T00:09:16.504Z,4.43
2023-04-22T00:11:43.801Z,4.43
2023-04-22T00:14:11.147Z,4.70
2023-04-22T00:16:38.954Z,4.47
2023-04-22T00:19:06.636Z,4.40
2023-04-22T00:21:34.106Z,4.07
2023-04-22T00:24:01.657Z,4.87
2023-04-22T00:26:29.180Z,4.40
2023-04-22T00:28:57.059Z,4.67
2023-04-22T00:31:24.517Z,4.30
2023-04-22T00:33:51.997Z,4.53
2023-04-22T00:36:19.488Z,4.57
2023-04-22T00:38:49.982Z,3.93
2023-04-22T00:41:17.794Z,4.80
2023-04-22T00:43:45.544Z,4.80
2023-04-22T00:46:12.943Z,4.47
2023-04-22T00:48:41.013Z,4.90
2023-04-22T00:51:08.494Z,4.40
2023-04-22T00:53:35.870Z,4.33
2023-04-22T00:56:03.303Z,4.87
2023-04-22T00:58:31.063Z,4.67
2023-04-22T01:00:59.033Z,5.70
2023-04-22T01:03:28.454Z,4.27
2023-04-22T01:05:56.991Z,5.33
2023-04-22T01:08:28.703Z,4.83
2023-04-22T01:10:56.859Z,6.43
2023-04-22T01:13:24.579Z,4.97
2023-04-22T01:15:53.858Z,5.03
2023-04-22T01:18:21.403Z,4.77
2023-04-22T01:20:48.761Z,5.50
2023-04-22T01:23:20.336Z,5.10
2023-04-22T01:25:48.279Z,4.27
2023-04-22T01:28:16.812Z,4.83
2023-04-22T01:30:44.192Z,4.47
2023-04-22T01:33:11.885Z,5.73
2023-04-22T01:35:39.633Z,5.60
2023-04-22T01:38:07.769Z,4.90
2023-04-22T01:40:35.944Z,4.73
2023-04-22T01:43:03.621Z,5.30
2023-04-22T01:45:31.425Z,5.13
2023-04-22T01:47:59.006Z,5.63
2023-04-22T01:50:26.460Z,5.07
2023-04-22T01:52:54.221Z,4.83
2023-04-22T01:55:23.031Z,4.97
2023-04-22T01:57:50.416Z,5.00
2023-04-22T02:00:18.206Z,5.67
2023-04-22T02:02:48.356Z,5.47
2023-04-22T02:05:16.117Z,5.60
2023-04-22T02:07:46.062Z,4.83
2023-04-22T02:10:16.858Z,5.40
2023-04-22T02:12:44.777Z,5.03
2023-04-22T02:15:14.708Z,4.90
2023-04-22T02:17:43.568Z,6.50
2023-04-22T02:20:13.291Z,6.03
2023-04-22T02:22:41.563Z,6.40
2023-04-22T02:25:09.565Z,5.67
2023-04-22T02:27:37.106Z,5.87
2023-04-22T02:30:04.672Z,5.67
2023-04-22T02:32:32.229Z,6.13
2023-04-22T02:35:02.024Z,5.40
2023-04-22T02:37:29.505Z,6.70
2023-04-22T02:39:56.880Z,5.60
2023-04-22T02:42:24.307Z,5.90
2023-04-22T02:44:51.642Z,4.80
2023-04-22T02:47:20.944Z,5.53
2023-04-22T02:49:49.168Z,5.67
2023-04-22T02:52:16.634Z,6.67
2023-04-22T02:54:44.034Z,5.43
2023-04-22T02:57:11.494Z,5.90
2023-04-22T02:59:39.092Z,6.20
2023-04-22T03:02:07.129Z,6.07
2023-04-22T03:04:46.138Z,6.17
2023-04-22T03:07:13.740Z,5.90
2023-04-22T03:09:41.549Z,6.07
2023-04-22T03:12:10.629Z,6.20
2023-04-22T03:14:38.027Z,6.37
2023-04-22T03:17:05.446Z,7.27
2023-04-22T03:19:33.210Z,6.73
2023-04-22T03:22:00.610Z,6.57
2023-04-22T03:24:28.044Z,5.90
2023-04-22T03:26:55.904Z,5.83
2023-04-22T03:29:23.390Z,6.20
2023-04-22T03:31:51.098Z,5.70
2023-04-22T03:34:18.786Z,6.60
2023-04-22T03:36:46.651Z,5.83
2023-04-22T03:39:14.195Z,5.67
2023-04-22T03:41:42.873Z,7.23
2023-04-22T03:44:10.625Z,5.03
2023-04-22T03:46:38.738Z,6.67
2023-04-22T03:49:15.265Z,5.67
2023-04-22T03:51:44.065Z,5.90
2023-04-22T03:54:15.606Z,6.30
2023-04-22T03:56:48.678Z,5.87
2023-04-22T03:59:16.640Z,6.13
2023-04-22T04:01:44.172Z,6.13
2023-04-22T04:04:11.844Z,5.93
2023-04-22T04:06:46.855Z,5.50
2023-04-22T04:09:14.246Z,6.20
2023-04-22T04:11:41.683Z,5.87
2023-04-22T04:14:10.236Z,5.57
2023-04-22T04:16:48.175Z,6.27
2023-04-22T04:19:24.270Z,5.63
2023-04-22T04:21:52.054Z,5.00
2023-04-22T04:24:23.642Z,5.80
2023-04-22T04:26:55.243Z,5.80
2023-04-22T04:29:28.631Z,5.20
2023-04-22T04:32:05.160Z,5.80
2023-04-22T04:34:34.356Z,5.30
2023-04-22T04:37:03.002Z,6.30
2023-04-22T04:39:40.065Z,5.07
2023-04-22T04:42:08.387Z,6.07
2023-04-22T04:44:42.862Z,5.23
2023-04-22T04:47:10.472Z,5.80
2023-04-22T04:49:40.600Z,5.33
2023-04-22T04:52:11.340Z,5.60
2023-04-22T04:54:39.249Z,5.83
2023-04-22T04:57:06.663Z,6.27
2023-04-22T04:59:34.534Z,4.87
2023-04-22T05:02:01.974Z,5.93
2023-04-22T05:04:31.319Z,5.03
2023-04-22T05:06:58.770Z,4.90
2023-04-22T05:09:26.809Z,5.57
2023-04-22T05:11:54.629Z,5.13
2023-04-22T05:14:22.527Z,6.20
2023-04-22T05:16:50.090Z,5.53
2023-04-22T05:19:17.623Z,6.43
2023-04-22T05:21:46.736Z,5.77
2023-04-22T05:24:15.030Z,6.00
2023-04-22T05:26:42.432Z,6.03
2023-04-22T05:29:15.506Z,5.83
2023-04-22T05:31:43.087Z,5.87
2023-04-22T05:34:11.867Z,5.73
2023-04-22T05:36:39.655Z,6.00
2023-04-22T05:39:08.085Z,5.93
2023-04-22T05:41:36.048Z,5.50
2023-04-22T05:44:06.335Z,7.20
2023-04-22T05:46:33.729Z,5.63
2023-04-22T05:49:01.176Z,6.40
2023-04-22T05:51:57.948Z,5.77
2023-04-22T05:54:30.655Z,6.30
2023-04-22T05:56:58.682Z,6.20
2023-04-22T05:59:26.597Z,6.00
2023-04-22T06:01:54.299Z,5.37
2023-04-22T06:04:22.129Z,5.47
2023-04-22T06:06:53.723Z,6.23
2023-04-22T06:09:21.858Z,5.83
2023-04-22T06:11:49.455Z,5.87
2023-04-22T06:14:16.877Z,5.27
2023-04-22T06:16:45.941Z,6.20
2023-04-22T06:19:13.864Z,7.17
2023-04-22T06:21:42.551Z,5.73
2023-04-22T06:24:10.835Z,6.10
2023-04-22T06:26:38.397Z,5.20
2023-04-22T06:29:06.146Z,6.33
2023-04-22T06:31:34.499Z,6.37
2023-04-22T06:34:01.911Z,5.27
2023-04-22T06:36:30.766Z,6.43
2023-04-22T06:39:02.830Z,7.30
2023-04-22T06:41:36.264Z,6.37
2023-04-22T06:44:11.557Z,6.30
2023-04-22T06:47:02.888Z,5.23
2023-04-22T06:49:47.256Z,5.03
2023-04-22T06:52:34.963Z,6.07
2023-04-22T06:55:03.607Z,6.67
2023-04-22T06:57:31.606Z,5.67
2023-04-22T06:59:59.017Z,7.20
2023-04-22T07:02:27.912Z,5.40
2023-04-22T07:04:55.675Z,6.77
2023-04-22T07:07:23.179Z,7.67
2023-04-22T07:09:50.914Z,7.10
2023-04-22T07:12:18.284Z,6.67
2023-04-22T07:14:46.072Z,5.73
2023-04-22T07:17:13.561Z,5.93
2023-04-22T07:19:41.510Z,6.23
2023-04-22T07:22:09.124Z,5.30
2023-04-22T07:24:37.486Z,7.13
2023-04-22T07:27:04.963Z,5.87
2023-04-22T07:29:32.268Z,6.07
2023-04-22T07:31:59.687Z,5.80
2023-04-22T07:34:27.055Z,6.57
2023-04-22T07:36:54.433Z,7.13
2023-04-22T07:39:23.438Z,7.90
2023-04-22T07:41:51.988Z,6.73
2023-04-22T07:44:21.664Z,6.57
2023-04-22T07:46:50.254Z,5.70
2023-04-22T07:49:17.806Z,6.93
2023-04-22T07:51:45.860Z,6.97
2023-04-22T07:54:13.482Z,7.13
2023-04-22T07:56:40.935Z,6.97
2023-04-22T07:59:08.431Z,6.40
2023-04-22T08:01:36.058Z,6.23
2023-04-22T08:04:03.868Z,6.13
2023-04-22T08:06:32.004Z,6.57
2023-04-22T08:08:59.388Z,6.23
2023-04-22T08:11:27.230Z,5.43
2023-04-22T08:13:54.951Z,5.77
2023-04-22T08:16:22.844Z,5.80
2023-04-22T08:18:52.095Z,6.20
2023-04-22T08:21:19.362Z,5.53
2023-04-22T08:23:47.077Z,6.13
2023-04-22T08:26:16.325Z,6.70
2023-04-22T08:28:44.252Z,5.50
2023-04-22T08:31:13.679Z,6.13
2023-04-22T08:33:41.835Z,5.13
2023-04-22T08:36:10.144Z,5.63
2023-04-22T08:38:38.309Z,5.70
2023-04-22T08:41:07.112Z,5.53
2023-04-22T08:43:34.650Z,4.87
2023-04-22T08:46:02.340Z,6.27
2023-04-22T08:48:29.796Z,5.40
2023-04-22T08:50:57.257Z,5.13
2023-04-22T08:53:24.972Z,4.97
2023-04-22T08:55:52.550Z,4.90
2023-04-22T08:58:20.049Z,4.53
2023-04-22T09:00:47.575Z,4.40
2023-04-22T09:03:16.643Z,4.97
2023-04-22T09:05:44.384Z,4.80
2023-04-22T09:08:12.206Z,4.97
2023-04-22T09:10:39.876Z,4.60
2023-04-22T09:13:07.639Z,5.10
2023-04-22T09:15:35.014Z,5.73
2023-04-22T09:18:05.513Z,4.73
2023-04-22T09:20:32.870Z,4.67
2023-04-22T09:23:03.960Z,5.00
2023-04-22T09:25:34.367Z,3.87
2023-04-22T09:28:02.022Z,4.20
2023-04-22T09:30:33.643Z,5.03
2023-04-22T09:33:02.583Z,5.67
2023-04-22T09:35:31.711Z,4.37
2023-04-22T09:38:01.892Z,4.57
2023-04-22T09:40:29.700Z,5.17
2023-04-22T09:42:58.688Z,4.73
2023-04-22T09:45:36.151Z,3.93
2023-04-22T09:48:13.854Z,4.83
2023-04-22T09:50:45.470Z,5.23
2023-04-22T09:53:14.586Z,4.97
2023-04-22T09:55:43.144Z,4.73
2023-04-22T09:58:11.867Z,5.77
2023-04-22T10:00:50.057Z,4.60
2023-04-22T10:03:17.852Z,4.47
2023-04-22T10:05:46.343Z,4.43
2023-04-22T10:08:14.690Z,6.03
2023-04-22T10:10:42.405Z,5.13
2023-04-22T10:13:10.734Z,4.33
2023-04-22T10:15:42.430Z,4.33
2023-04-22T10:18:13.075Z,4.57
2023-04-22T10:20:41.358Z,5.03
2023-04-22T10:23:13.762Z,4.73
2023-04-22T10:25:41.286Z,5.03
2023-04-22T10:28:10.206Z,4.20
2023-04-22T10:30:38.947Z,4.60
2023-04-22T10:33:21.904Z,4.03
2023-04-22T10:36:08.169Z,3.93
2023-04-22T10:38:36.499Z,3.97
2023-04-22T10:41:04.090Z,4.57
2023-04-22T10:43:45.255Z,3.93
2023-04-22T10:46:40.082Z,4.13
2023-04-22T10:49:08.408Z,4.27
2023-04-22T10:51:52.388Z,5.43
2023-04-22T10:54:31.989Z,5.53
2023-04-22T10:57:19.255Z,4.60
2023-04-22T10:59:52.904Z,4.50
2023-04-22T11:02:20.980Z,4.90
2023-04-22T11:04:48.683Z,4.57
2023-04-22T11:07:20.729Z,5.03
2023-04-22T11:09:50.893Z,4.67
2023-04-22T11:12:39.518Z,4.33
2023-04-22T11:15:06.999Z,5.00
2023-04-22T11:17:35.087Z,4.47
2023-04-22T11:20:02.718Z,5.07
2023-04-22T11:22:30.844Z,5.80
2023-04-22T11:24:58.755Z,5.17
2023-04-22T11:27:26.943Z,6.13
2023-04-22T11:30:15.050Z,6.27
2023-04-22T11:32:43.503Z,4.90
2023-04-22T11:35:15.148Z,4.80
2023-04-22T11:37:46.823Z,5.90
2023-04-22T11:40:28.897Z,6.27
2023-04-22T11:42:57.564Z,5.70
2023-04-22T11:45:25.842Z,6.43
2023-04-22T11:47:54.122Z,5.60
2023-04-22T11:50:23.024Z,5.27
2023-04-22T11:52:55.378Z,6.03
2023-04-22T11:55:33.671Z,5.50
2023-04-22T11:58:07.251Z,5.80
2023-04-22T12:00:54.932Z,6.17
2023-04-22T12:03:24.214Z,6.27
2023-04-22T12:05:59.351Z,5.40
2023-04-22T12:08:31.487Z,5.37
2023-04-22T12:10:59.927Z,6.50
2023-04-22T12:13:30.299Z,6.23
2023-04-22T12:16:12.034Z,5.80
2023-04-22T12:18:40.624Z,6.13
2023-04-22T12:21:08.117Z,6.90
2023-04-22T12:23:44.843Z,8.13
2023-04-22T12:26:13.032Z,6.80
2023-04-22T12:28:40.975Z,6.57
2023-04-22T12:31:09.518Z,6.03
2023-04-22T12:33:37.628Z,6.30
2023-04-22T12:36:05.459Z,7.47
2023-04-22T12:38:34.093Z,6.73
2023-04-22T12:41:02.515Z,8.27
2023-04-22T12:43:29.997Z,7.10
2023-04-22T12:45:57.456Z,6.13
2023-04-22T12:48:24.898Z,6.03
2023-04-22T12:50:52.372Z,6.30
2023-04-22T12:53:22.136Z,7.43
2023-04-22T12:55:49.880Z,8.47
2023-04-22T12:58:17.214Z,6.60
2023-04-22T13:00:44.586Z,6.07
2023-04-22T13:03:12.339Z,6.63
2023-04-22T13:05:40.251Z,8.40
2023-04-22T13:08:08.329Z,6.57
2023-04-22T13:10:36.288Z,7.17
2023-04-22T13:15:39.191Z,6.67
2023-04-22T13:18:06.966Z,6.60
2023-04-22T13:20:34.492Z,6.13
2023-04-22T13:23:02.376Z,7.00
2023-04-22T13:25:29.961Z,7.60
2023-04-22T13:27:57.335Z,7.47
2023-04-22T13:30:24.912Z,7.83
2023-04-22T13:32:52.341Z,8.23
2023-04-22T13:35:19.863Z,7.57
2023-04-22T13:37:53.135Z,6.37
2023-04-22T13:40:21.921Z,7.13
2023-04-22T13:42:51.573Z,6.63
2023-04-22T13:45:18.909Z,6.83
2023-04-22T13:47:46.292Z,7.07
2023-04-22T13:50:13.660Z,7.80
2023-04-22T13:52:41.476Z,8.40
2023-04-22T13:55:09.204Z,9.37
2023-04-22T13:57:36.643Z,8.77
2023-04-22T14:00:05.334Z,8.03
2023-04-22T14:02:39.345Z,8.80
2023-04-22T14:05:07.611Z,9.33
2023-04-22T14:07:36.216Z,8.60
2023-04-22T14:10:08.738Z,8.73
2023-04-22T14:12:36.498Z,8.03
2023-04-22T14:15:04.180Z,7.80
2023-04-22T14:17:32.025Z,7.07
2023-04-22T14:19:59.857Z,7.73
2023-04-22T14:22:27.203Z,8.43
2023-04-22T14:24:55.725Z,7.47
2023-04-22T14:27:23.163Z,8.33
2023-04-22T14:29:52.473Z,7.43
2023-04-22T14:32:20.566Z,8.17
2023-04-22T14:34:48.136Z,6.67
2023-04-22T14:37:15.599Z,7.83
2023-04-22T14:39:43.069Z,8.50
2023-04-22T14:42:11.199Z,8.57
2023-04-22T14:44:38.594Z,8.30
2023-04-22T14:47:06.193Z,7.07
2023-04-22T14:49:33.571Z,7.57
2023-04-22T14:52:01.553Z,7.87
2023-04-22T14:54:28.949Z,7.10
2023-04-22T14:56:56.601Z,7.10
2023-04-22T14:59:25.083Z,7.57
2023-04-22T15:01:52.508Z,6.63
2023-04-22T15:04:20.169Z,7.57
2023-04-22T15:06:47.545Z,7.53
2023-04-22T15:09:14.900Z,7.57
2023-04-22T15:11:42.368Z,6.53
2023-04-22T15:14:09.901Z,6.87
2023-04-22T15:16:37.597Z,6.90
2023-04-22T15:19:05.415Z,7.07
2023-04-22T15:21:33.366Z,7.60
2023-04-22T15:24:00.739Z,7.47
2023-04-22T15:26:28.264Z,6.60
2023-04-22T15:28:55.778Z,9.50
2023-04-22T15:31:23.099Z,7.87
2023-04-22T15:33:50.638Z,6.33
2023-04-22T15:36:20.980Z,7.57
2023-04-22T15:38:48.327Z,7.37
2023-04-22T15:41:16.970Z,7.07
2023-04-22T15:43:44.757Z,6.87
2023-04-22T15:46:14.526Z,6.20
2023-04-22T15:48:44.477Z,7.10
2023-04-22T15:51:12.142Z,7.30
2023-04-22T15:53:39.533Z,8.00
2023-04-22T15:56:07.169Z,7.70
2023-04-22T15:58:34.821Z,6.63
2023-04-22T16:01:15.373Z,6.70
2023-04-22T16:03:46.256Z,6.50
2023-04-22T16:06:13.859Z,6.20
2023-04-22T16:08:41.671Z,6.47
2023-04-22T16:11:09.098Z,7.57
2023-04-22T16:13:36.764Z,7.40
2023-04-22T16:16:06.774Z,7.10
2023-04-22T16:18:34.550Z,6.60
2023-04-22T16:21:02.100Z,7.67
2023-04-22T16:23:29.588Z,9.00
2023-04-22T16:25:58.441Z,7.67
2023-04-22T16:28:25.805Z,9.67
2023-04-22T16:30:53.222Z,8.30
2023-04-22T16:33:20.646Z,9.33
2023-04-22T16:35:48.022Z,7.27
2023-04-22T16:38:15.514Z,9.07
2023-04-22T16:40:42.891Z,12.33
2023-04-22T16:43:10.726Z,9.53
2023-04-22T16:45:38.267Z,7.80
2023-04-22T16:48:05.695Z,10.30
2023-04-22T16:50:33.055Z,9.60
2023-04-22T16:53:00.395Z,9.10
2023-04-22T16:55:27.751Z,7.97
2023-04-22T16:57:55.018Z,11.77
2023-04-22T17:00:24.048Z,10.40
2023-04-22T17:02:51.515Z,9.07
2023-04-22T17:05:19.273Z,7.77
2023-04-22T17:07:46.627Z,9.37
2023-04-22T17:10:14.086Z,8.50
2023-04-22T17:12:41.530Z,8.43
2023-04-22T17:15:09.853Z,8.60
2023-04-22T17:17:37.171Z,9.50
2023-04-22T17:20:06.706Z,8.33
2023-04-22T17:22:34.155Z,8.83
2023-04-22T17:25:01.547Z,9.00
2023-04-22T17:27:28.925Z,7.90
2023-04-22T17:29:56.332Z,7.87
2023-04-22T17:32:23.934Z,8.27
2023-04-22T17:34:51.265Z,9.30
2023-04-22T17:37:18.642Z,8.40
2023-04-22T17:39:45.924Z,7.60
2023-04-22T17:42:14.304Z,6.97
2023-04-22T17:44:42.088Z,6.60
2023-04-22T17:47:09.733Z,7.17
2023-04-22T17:49:37.122Z,7.00
2023-04-22T17:52:04.460Z,7.00
2023-04-22T17:54:31.928Z,6.23
2023-04-22T17:56:59.290Z,7.30
2023-04-22T17:59:26.736Z,7.17
2023-04-22T18:01:54.151Z,6.90
2023-04-22T18:04:21.815Z,7.10
2023-04-22T18:06:49.350Z,6.20
2023-04-22T18:09:17.346Z,6.33
2023-04-22T18:11:45.298Z,6.20
2023-04-22T18:14:12.806Z,6.33
2023-04-22T18:16:40.160Z,6.20
2023-04-22T18:19:07.462Z,6.33
2023-04-22T18:21:36.073Z,6.07
2023-04-22T18:24:04.394Z,5.50
2023-04-22T18:26:32.152Z,5.83
2023-04-22T18:28:59.590Z,6.53
2023-04-22T18:31:27.097Z,5.53
2023-04-22T18:33:54.490Z,5.57
2023-04-22T18:36:22.442Z,6.10
2023-04-22T18:38:49.906Z,5.57
2023-04-22T18:41:17.290Z,5.60
2023-04-22T18:43:47.251Z,6.13
2023-04-22T18:46:14.673Z,5.53
2023-04-22T18:48:42.258Z,5.60
2023-04-22T18:51:09.612Z,5.50
2023-04-22T18:53:37.268Z,5.23
2023-04-22T18:56:04.638Z,5.60
2023-04-22T18:58:31.928Z,5.50
2023-04-22T19:00:59.352Z,5.93
2023-04-22T19:03:26.876Z,5.90
2023-04-22T19:05:54.247Z,6.27
2023-04-22T19:08:21.655Z,5.67
2023-04-22T19:10:48.950Z,5.73
2023-04-22T19:13:28.687Z,5.53
2023-04-22T19:15:57.617Z,6.00
2023-04-22T19:18:24.946Z,5.90
2023-04-22T19:20:52.278Z,4.87
2023-04-22T19:23:19.652Z,5.87
2023-04-22T19:25:47.166Z,5.90
2023-04-22T19:28:14.550Z,6.30
2023-04-22T19:30:41.919Z,6.90
2023-04-22T19:33:09.328Z,6.50
2023-04-22T19:35:36.604Z,5.50
2023-04-22T19:38:03.967Z,5.87
2023-04-22T19:40:31.308Z,7.00
2023-04-22T19:42:59.169Z,6.27
2023-04-22T19:45:27.169Z,6.57
2023-04-22T19:47:54.643Z,6.30
2023-04-22T19:50:22.284Z,6.07
2023-04-22T19:52:50.771Z,6.20
2023-04-22T19:55:18.374Z,6.50
2023-04-22T19:57:46.441Z,6.63
2023-04-22T20:00:14.318Z,6.27
2023-04-22T20:02:42.486Z,7.17
2023-04-22T20:05:10.336Z,6.83
2023-04-22T20:07:38.412Z,7.57
2023-04-22T20:10:07.135Z,7.13
2023-04-22T20:12:34.774Z,7.17
2023-04-22T20:15:02.709Z,6.50
2023-04-22T20:17:31.236Z,6.63
2023-04-22T20:19:58.663Z,6.40
2023-04-22T20:22:26.173Z,6.97
2023-04-22T20:24:57.101Z,7.20
2023-04-22T20:27:25.775Z,6.27
2023-04-22T20:29:54.122Z,6.73
2023-04-22T20:32:21.521Z,7.30
2023-04-22T20:34:49.041Z,6.93
2023-04-22T20:37:19.977Z,6.93
2023-04-22T20:39:49.161Z,7.20
2023-04-22T20:42:17.108Z,7.50
2023-04-22T20:44:44.561Z,7.03
2023-04-22T20:47:11.964Z,6.70
2023-04-22T20:49:41.941Z,7.07
2023-04-22T20:52:09.660Z,7.07
2023-04-22T20:54:37.559Z,7.60
2023-04-22T20:57:06.128Z,7.37
2023-04-22T20:59:34.012Z,7.10
2023-04-22T21:02:01.646Z,7.60
2023-04-22T21:04:29.625Z,6.87
2023-04-22T21:06:58.423Z,8.03
2023-04-22T21:09:25.906Z,7.97
2023-04-22T21:11:54.649Z,7.50
2023-04-22T21:14:22.368Z,7.33
2023-04-22T21:16:57.584Z,7.73
2023-04-22T21:19:25.232Z,7.67
2023-04-22T21:21:53.697Z,7.63
2023-04-22T21:24:22.011Z,7.30
2023-04-22T21:26:49.448Z,6.53
2023-04-22T21:29:17.166Z,8.30
2023-04-22T21:31:51.586Z,7.80
2023-04-22T21:34:25.100Z,7.53
2023-04-22T21:36:52.591Z,9.03
2023-04-22T21:39:19.945Z,8.60
2023-04-22T21:41:47.248Z,7.53
2023-04-22T21:44:15.292Z,8.17
2023-04-22T21:46:42.708Z,7.80
2023-04-22T21:49:10.151Z,7.33
2023-04-22T21:51:37.901Z,7.70
2023-04-22T21:54:05.382Z,8.33
2023-04-22T21:56:33.702Z,7.40
2023-04-22T21:59:01.049Z,8.27
2023-04-22T22:01:28.425Z,6.57
2023-04-22T22:03:56.049Z,8.03
2023-04-22T22:06:23.842Z,7.77
2023-04-22T22:08:51.180Z,6.90
2023-04-22T22:11:30.308Z,8.03
2023-04-22T22:13:58.602Z,7.43
2023-04-22T22:16:26.135Z,8.40
2023-04-22T22:18:55.684Z,8.20
2023-04-22T22:21:22.957Z,7.83
2023-04-22T22:23:50.287Z,7.37
2023-04-22T22:26:17.567Z,7.67
2023-04-22T22:28:44.890Z,8.43
2023-04-22T22:31:12.229Z,9.27
2023-04-22T22:33:39.569Z,8.10
2023-04-22T22:36:06.993Z,7.53
2023-04-22T22:38:34.282Z,8.23
2023-04-22T22:41:01.659Z,7.60
2023-04-22T22:43:28.959Z,8.37
2023-04-22T22:45:56.437Z,8.23
2023-04-22T22:48:23.744Z,8.10
2023-04-22T22:50:50.968Z,7.83
2023-04-22T22:53:18.275Z,8.60
2023-04-22T22:55:45.647Z,8.63
2023-04-22T22:58:12.928Z,8.83
2023-04-22T23:00:40.333Z,8.77
2023-04-22T23:03:07.905Z,8.13
2023-04-22T23:05:35.366Z,8.93
2023-04-22T23:08:02.700Z,8.77
2023-04-22T23:10:30.230Z,8.17
2023-04-22T23:12:57.511Z,7.47
2023-04-22T23:15:24.855Z,7.90
2023-04-22T23:17:52.465Z,7.80
2023-04-22T23:20:20.437Z,9.53
2023-04-22T23:22:50.856Z,9.30
2023-04-22T23:25:18.332Z,9.87
2023-04-22T23:27:45.867Z,8.13
2023-04-22T23:30:13.557Z,9.77
2023-04-22T23:32:41.261Z,10.93
2023-04-22T23:35:09.570Z,8.83
2023-04-22T23:37:38.209Z,8.47
2023-04-22T23:40:06.880Z,8.53
2023-04-22T23:42:34.245Z,8.53
2023-04-22T23:45:01.550Z,9.97
2023-04-22T23:47:28.975Z,9.37
2023-04-22T23:49:56.471Z,9.87
2023-04-22T23:52:24.006Z,9.03
2023-04-22T23:54:52.385Z,9.43
2023-04-22T23:57:19.862Z,10.33
2023-04-22T23:59:47.325Z,9.00
